createdAt,value
2022-08-23T00:03:43.515Z,15.36
2022-08-23T00:09:05.768Z,15.37
2022-08-23T00:14:32.088Z,15.29
2022-08-23T00:19:53.081Z,15.36
2022-08-23T00:25:15.602Z,15.36
2022-08-23T00:30:37.127Z,15.37
2022-08-23T00:35:58.243Z,15.42
2022-08-23T00:41:18.754Z,15.45
2022-08-23T00:47:02.474Z,15.41
2022-08-23T00:52:38.637Z,15.45
2022-08-23T00:58:00.099Z,15.47
2022-08-23T01:03:24.745Z,15.43
2022-08-23T01:08:54.442Z,15.44
2022-08-23T01:14:21.259Z,15.58
2022-08-23T01:19:57.380Z,15.59
2022-08-23T01:25:21.670Z,15.53
2022-08-23T01:30:44.594Z,15.58
2022-08-23T01:36:09.818Z,15.58
2022-08-23T01:41:31.969Z,15.51
2022-08-23T01:46:54.991Z,15.51
2022-08-23T01:52:19.601Z,15.53
2022-08-23T01:57:42.570Z,15.52
2022-08-23T02:03:08.238Z,15.45
2022-08-23T02:08:47.932Z,15.40
2022-08-23T02:14:13.545Z,15.41
2022-08-23T02:19:44.030Z,15.41
2022-08-23T02:25:05.575Z,15.42
2022-08-23T02:30:26.369Z,15.48
2022-08-23T02:35:49.100Z,15.50
2022-08-23T02:41:10.853Z,15.48
2022-08-23T02:46:31.782Z,15.45
2022-08-23T02:51:53.824Z,15.43
2022-08-23T02:57:14.668Z,15.48
2022-08-23T03:02:36.743Z,15.53
2022-08-23T03:07:57.991Z,15.50
2022-08-23T03:13:20.872Z,15.52
2022-08-23T03:18:44.585Z,15.55
2022-08-23T03:24:10.226Z,15.55
2022-08-23T03:29:33.386Z,15.50
2022-08-23T03:34:56.860Z,15.54
2022-08-23T03:40:18.425Z,15.49
2022-08-23T03:45:39.323Z,15.51
2022-08-23T03:51:02.274Z,15.54
2022-08-23T03:56:28.565Z,15.57
2022-08-23T04:01:49.493Z,15.55
2022-08-23T04:07:12.167Z,15.46
2022-08-23T04:12:33.505Z,15.42
2022-08-23T04:17:54.470Z,15.50
2022-08-23T04:23:16.846Z,15.51
2022-08-23T04:28:44.452Z,15.52
2022-08-23T04:34:08.418Z,15.49
2022-08-23T04:39:30.141Z,15.49
2022-08-23T04:44:52.333Z,15.50
2022-08-23T04:50:13.680Z,15.54
2022-08-23T04:55:54.843Z,15.58
2022-08-23T05:01:16.341Z,15.63
2022-08-23T05:06:39.438Z,15.59
2022-08-23T05:12:00.112Z,15.62
2022-08-23T05:17:22.581Z,15.58
2022-08-23T05:22:43.400Z,15.59
2022-08-23T05:28:34.999Z,15.58
2022-08-23T05:33:57.353Z,15.57
2022-08-23T05:39:35.902Z,15.53
2022-08-23T05:44:58.784Z,15.55
2022-08-23T05:50:22.618Z,15.57
2022-08-23T05:55:44.480Z,15.54
2022-08-23T06:01:14.663Z,15.52
2022-08-23T06:06:37.539Z,15.58
2022-08-23T06:12:00.100Z,15.63
2022-08-23T06:17:21.123Z,15.66
2022-08-23T06:22:42.226Z,15.64
2022-08-23T06:28:03.231Z,15.57
2022-08-23T06:33:26.936Z,15.59
2022-08-23T06:39:28.451Z,15.62
2022-08-23T06:44:56.416Z,15.67
2022-08-23T06:50:36.234Z,15.69
2022-08-23T06:56:15.690Z,15.72
2022-08-23T07:01:50.926Z,15.73
2022-08-23T07:07:44.406Z,15.74
2022-08-23T07:13:07.136Z,15.77
2022-08-23T07:18:28.147Z,15.76
2022-08-23T07:23:48.961Z,15.81
2022-08-23T07:29:11.412Z,15.87
2022-08-23T07:34:33.627Z,15.91
2022-08-23T07:39:58.488Z,15.96
2022-08-23T07:45:23.065Z,15.96
2022-08-23T07:50:57.949Z,16.05
2022-08-23T07:56:22.157Z,16.04
2022-08-23T08:01:58.733Z,16.00
2022-08-23T08:07:21.629Z,16.05
2022-08-23T08:12:50.878Z,15.98
2022-08-23T08:18:12.931Z,16.02
2022-08-23T08:23:53.260Z,15.95
2022-08-23T08:29:32.566Z,15.95
2022-08-23T08:34:53.431Z,16.02
2022-08-23T08:40:19.745Z,16.05
2022-08-23T08:45:58.846Z,16.06
2022-08-23T08:51:49.425Z,16.11
2022-08-23T08:57:15.506Z,16.11
2022-08-23T09:02:39.797Z,16.22
2022-08-23T09:08:02.739Z,16.29
2022-08-23T09:13:35.932Z,16.32
2022-08-23T09:18:57.089Z,16.32
2022-08-23T09:24:18.068Z,16.33
2022-08-23T09:30:01.208Z,16.34
2022-08-23T09:35:25.730Z,16.36
2022-08-23T09:40:58.588Z,16.32
2022-08-23T09:46:39.207Z,16.29
2022-08-23T09:52:12.856Z,16.27
2022-08-23T09:57:48.433Z,16.34
2022-08-23T10:03:26.979Z,16.44
2022-08-23T10:08:58.401Z,16.48
2022-08-23T10:14:23.476Z,16.56
2022-08-23T10:20:15.018Z,16.54
2022-08-23T10:25:42.543Z,16.53
2022-08-23T10:31:09.356Z,16.58
2022-08-23T10:37:07.944Z,16.67
2022-08-23T10:43:07.596Z,16.73
2022-08-23T10:48:52.230Z,16.86
2022-08-23T10:54:18.831Z,16.89
2022-08-23T10:59:40.715Z,16.88
2022-08-23T11:05:07.501Z,16.89
2022-08-23T11:10:53.746Z,16.87
2022-08-23T11:16:31.347Z,16.87
2022-08-23T11:22:15.220Z,16.90
2022-08-23T11:27:41.780Z,16.91
2022-08-23T11:33:17.501Z,16.97
2022-08-23T11:38:47.919Z,17.01
2022-08-23T11:44:13.426Z,17.08
2022-08-23T11:50:12.732Z,17.05
2022-08-23T11:56:04.177Z,17.11
2022-08-23T12:01:45.616Z,17.18
2022-08-23T12:07:12.925Z,17.21
2022-08-23T12:12:39.466Z,17.22
2022-08-23T12:18:12.863Z,17.27
2022-08-23T12:23:49.611Z,17.30
2022-08-23T12:29:19.028Z,17.36
2022-08-23T12:34:39.838Z,17.47
2022-08-23T12:40:02.866Z,17.51
2022-08-23T12:45:23.744Z,17.44
2022-08-23T12:50:51.649Z,17.40
2022-08-23T12:56:20.235Z,17.43
2022-08-23T13:01:42.046Z,17.46
2022-08-23T13:07:07.046Z,17.40
2022-08-23T13:12:28.424Z,17.34
2022-08-23T13:17:59.573Z,17.40
2022-08-23T13:23:28.826Z,17.43
2022-08-23T13:29:03.049Z,17.55
2022-08-23T13:34:40.208Z,17.54
2022-08-23T13:40:15.838Z,17.48
2022-08-23T13:45:44.672Z,17.52
2022-08-23T13:51:26.782Z,17.59
2022-08-23T13:56:50.995Z,17.64
2022-08-23T14:02:14.365Z,17.65
2022-08-23T14:07:36.097Z,17.72
2022-08-23T14:12:57.062Z,17.70
2022-08-23T14:18:18.994Z,17.77
2022-08-23T14:23:39.757Z,17.86
2022-08-23T14:29:00.885Z,17.87
2022-08-23T14:34:22.300Z,17.84
2022-08-23T14:39:43.303Z,17.94
2022-08-23T14:45:05.499Z,17.88
2022-08-23T14:50:27.810Z,17.89
2022-08-23T14:56:12.267Z,17.78
2022-08-23T15:01:34.785Z,17.72
2022-08-23T15:07:16.800Z,17.68
2022-08-23T15:18:20.288Z,17.77
2022-08-23T15:23:45.106Z,17.79
2022-08-23T15:29:06.231Z,17.66
2022-08-23T15:34:27.362Z,17.67
2022-08-23T15:39:50.854Z,17.67
2022-08-23T15:45:11.601Z,17.68
2022-08-23T15:50:34.540Z,17.70
2022-08-23T15:55:56.433Z,17.74
2022-08-23T16:01:19.860Z,17.74
2022-08-23T16:06:45.196Z,17.70
2022-08-23T16:12:06.662Z,17.64
2022-08-23T16:17:27.474Z,17.68
2022-08-23T16:22:48.484Z,17.74
2022-08-23T16:28:09.549Z,17.85
2022-08-23T16:33:30.185Z,17.87
2022-08-23T16:38:51.330Z,17.82
2022-08-23T16:44:12.614Z,17.71
2022-08-23T16:49:34.797Z,17.87
2022-08-23T16:54:55.562Z,17.97
2022-08-23T17:00:16.698Z,17.99
2022-08-23T17:05:38.976Z,17.99
2022-08-23T17:11:03.230Z,18.05
2022-08-23T17:16:24.502Z,18.10
2022-08-23T17:21:45.165Z,18.05
2022-08-23T17:27:07.264Z,17.99
2022-08-23T17:32:28.461Z,18.01
2022-08-23T17:37:49.867Z,18.03
2022-08-23T17:43:12.174Z,18.08
2022-08-23T17:48:32.689Z,18.07
2022-08-23T17:53:53.507Z,17.99
2022-08-23T17:59:14.280Z,17.96
2022-08-23T18:04:35.678Z,17.95
2022-08-23T18:09:57.625Z,17.97
2022-08-23T18:15:18.705Z,17.92
2022-08-23T18:20:40.117Z,17.99
2022-08-23T18:26:06.588Z,18.00
2022-08-23T18:31:27.829Z,18.02
2022-08-23T18:36:48.844Z,18.08
2022-08-23T18:42:10.710Z,18.15
2022-08-23T18:47:31.489Z,18.22
2022-08-23T18:52:52.124Z,18.14
2022-08-23T18:58:13.240Z,18.04
2022-08-23T19:03:34.122Z,18.01
2022-08-23T19:08:56.032Z,18.01
2022-08-23T19:14:16.745Z,18.05
2022-08-23T19:19:38.122Z,18.03
2022-08-23T19:24:59.048Z,18.07
2022-08-23T19:30:20.259Z,18.07
2022-08-23T19:35:41.341Z,18.08
2022-08-23T19:41:02.849Z,18.13
2022-08-23T19:46:23.725Z,18.13
2022-08-23T19:51:44.940Z,18.07
2022-08-23T19:57:08.160Z,18.08
2022-08-23T20:02:29.486Z,18.08
2022-08-23T20:07:50.065Z,18.09
2022-08-23T20:13:11.902Z,18.13
2022-08-23T20:18:32.782Z,18.15
2022-08-23T20:24:06.456Z,18.08
2022-08-23T20:29:27.423Z,18.17
2022-08-23T20:34:48.080Z,18.12
2022-08-23T20:40:10.859Z,18.17
2022-08-23T20:45:33.377Z,18.12
2022-08-23T20:50:54.035Z,18.28
2022-08-23T20:56:16.157Z,18.26
2022-08-23T21:01:36.884Z,18.32
2022-08-23T21:06:57.875Z,18.31
2022-08-23T21:12:19.440Z,18.38
2022-08-23T21:17:40.185Z,18.43
2022-08-23T21:23:01.017Z,18.38
2022-08-23T21:28:23.274Z,18.31
2022-08-23T21:33:45.141Z,18.28
2022-08-23T21:39:06.389Z,18.28
2022-08-23T21:44:27.020Z,18.24
2022-08-23T21:49:47.776Z,18.18
2022-08-23T21:55:09.128Z,18.22
2022-08-23T22:00:29.773Z,18.18
2022-08-23T22:05:50.788Z,18.17
2022-08-23T22:11:12.647Z,18.13
2022-08-23T22:16:33.504Z,18.22
2022-08-23T22:21:54.336Z,18.24
2022-08-23T22:27:15.031Z,18.16
2022-08-23T22:32:35.710Z,18.13
2022-08-23T22:38:14.417Z,18.22
2022-08-23T22:43:35.780Z,18.24
2022-08-23T22:48:57.046Z,18.20
2022-08-23T22:54:18.123Z,18.27
2022-08-23T22:59:39.202Z,18.37
2022-08-23T23:05:00.213Z,18.47
2022-08-23T23:10:20.890Z,18.36
2022-08-23T23:15:41.585Z,18.39
2022-08-23T23:21:04.427Z,18.33
2022-08-23T23:26:25.486Z,18.39
2022-08-23T23:31:46.195Z,18.43
2022-08-23T23:37:06.810Z,18.40
2022-08-23T23:42:27.380Z,18.43
2022-08-23T23:47:49.471Z,18.51
2022-08-23T23:53:10.239Z,18.56
2022-08-23T23:58:31.479Z,18.58
